createdAt,value
2023-04-17T00:02:15.750Z,53.35
2023-04-17T00:04:42.473Z,51.08
2023-04-17T00:07:09.439Z,47.53
2023-04-17T00:09:35.972Z,46.63
2023-04-17T00:12:02.418Z,47.38
2023-04-17T00:14:28.892Z,46.35
2023-04-17T00:16:55.365Z,47.88
2023-04-17T00:19:21.868Z,45.75
2023-04-17T00:21:48.292Z,50.40
2023-04-17T00:24:14.740Z,49.90
2023-04-17T00:26:41.124Z,50.13
2023-04-17T00:29:07.608Z,46.83
2023-04-17T00:31:34.038Z,53.00
2023-04-17T00:34:01.346Z,52.67
2023-04-17T00:36:31.487Z,47.40
2023-04-17T00:38:58.622Z,57.78
2023-04-17T00:41:25.040Z,42.85
2023-04-17T00:43:51.485Z,43.08
2023-04-17T00:46:18.005Z,47.05
2023-04-17T00:48:44.605Z,46.47
2023-04-17T00:51:11.066Z,44.55
2023-04-17T00:53:37.736Z,43.75
2023-04-17T00:56:05.776Z,40.72
2023-04-17T00:58:33.225Z,38.58
2023-04-17T01:00:59.925Z,35.75
2023-04-17T01:03:29.613Z,45.08
2023-04-17T01:05:56.135Z,44.13
2023-04-17T01:08:22.642Z,38.03
2023-04-17T01:10:49.037Z,35.65
2023-04-17T01:13:15.537Z,41.92
2023-04-17T01:15:42.863Z,41.67
2023-04-17T01:18:09.301Z,40.28
2023-04-17T01:20:37.493Z,42.53
2023-04-17T01:23:03.861Z,40.25
2023-04-17T01:25:30.385Z,38.53
2023-04-17T01:27:57.009Z,37.78
2023-04-17T01:30:23.515Z,36.65
2023-04-17T01:32:50.123Z,39.83
2023-04-17T01:35:16.600Z,37.38
2023-04-17T01:37:43.040Z,34.33
2023-04-17T01:40:09.981Z,39.90
2023-04-17T01:42:36.414Z,37.97
2023-04-17T01:45:04.258Z,40.35
2023-04-17T01:47:30.659Z,40.42
2023-04-17T01:49:57.103Z,42.97
2023-04-17T01:52:23.497Z,41.13
2023-04-17T01:54:49.920Z,41.30
2023-04-17T01:57:16.446Z,38.63
2023-04-17T01:59:42.891Z,52.58
2023-04-17T02:02:09.459Z,43.10
2023-04-17T02:04:36.107Z,39.88
2023-04-17T02:07:02.854Z,42.10
2023-04-17T02:09:29.255Z,43.65
2023-04-17T02:11:56.783Z,40.90
2023-04-17T02:14:23.228Z,48.45
2023-04-17T02:16:50.087Z,42.28
2023-04-17T02:19:16.507Z,41.15
2023-04-17T02:21:42.946Z,41.40
2023-04-17T02:24:09.381Z,39.58
2023-04-17T02:26:37.010Z,39.08
2023-04-17T02:29:03.512Z,43.25
2023-04-17T02:31:31.646Z,39.17
2023-04-17T02:33:58.091Z,35.38
2023-04-17T02:36:24.516Z,37.05
2023-04-17T02:38:50.912Z,35.92
2023-04-17T02:41:17.398Z,38.13
2023-04-17T02:43:43.782Z,37.40
2023-04-17T02:46:10.485Z,36.03
2023-04-17T02:48:37.057Z,29.42
2023-04-17T02:51:03.593Z,33.95
2023-04-17T02:53:30.267Z,36.28
2023-04-17T02:55:56.675Z,37.40
2023-04-17T02:58:23.066Z,39.47
2023-04-17T03:00:49.521Z,34.40
2023-04-17T03:03:16.122Z,37.13
2023-04-17T03:05:42.678Z,37.58
2023-04-17T03:08:09.077Z,38.85
2023-04-17T03:10:35.486Z,36.97
2023-04-17T03:13:03.592Z,35.88
2023-04-17T03:15:30.000Z,37.75
2023-04-17T03:17:56.544Z,39.10
2023-04-17T03:20:22.961Z,39.88
2023-04-17T03:22:49.381Z,42.90
2023-04-17T03:25:15.914Z,40.78
2023-04-17T03:27:42.346Z,37.67
2023-04-17T03:30:09.236Z,37.78
2023-04-17T03:32:35.968Z,42.53
2023-04-17T03:35:02.406Z,38.33
2023-04-17T03:37:28.840Z,41.35
2023-04-17T03:39:55.636Z,40.45
2023-04-17T03:42:22.045Z,39.20
2023-04-17T03:44:48.476Z,42.22
2023-04-17T03:47:14.871Z,38.03
2023-04-17T03:49:41.329Z,38.53
2023-04-17T03:52:07.780Z,35.13
2023-04-17T03:54:35.795Z,45.00
2023-04-17T03:57:03.176Z,36.00
2023-04-17T03:59:31.365Z,36.55
2023-04-17T04:01:57.798Z,39.13
2023-04-17T04:04:24.887Z,41.20
2023-04-17T04:06:54.466Z,40.63
2023-04-17T04:09:21.414Z,40.25
2023-04-17T04:11:47.907Z,43.25
2023-04-17T04:14:15.055Z,41.70
2023-04-17T04:16:41.476Z,41.95
2023-04-17T04:19:08.096Z,42.35
2023-04-17T04:21:34.554Z,37.55
2023-04-17T04:24:01.018Z,39.35
2023-04-17T04:26:27.398Z,42.53
2023-04-17T04:28:54.135Z,45.30
2023-04-17T04:31:21.269Z,44.97
2023-04-17T04:33:47.773Z,48.45
2023-04-17T04:36:14.193Z,47.70
2023-04-17T04:38:40.576Z,39.85
2023-04-17T04:41:09.928Z,44.67
2023-04-17T04:43:36.912Z,44.92
2023-04-17T04:46:03.630Z,44.65
2023-04-17T04:48:30.049Z,40.80
2023-04-17T04:50:56.490Z,40.85
2023-04-17T04:53:23.099Z,47.45
2023-04-17T04:55:49.573Z,48.60
2023-04-17T04:58:16.303Z,45.38
2023-04-17T05:00:43.515Z,48.67
2023-04-17T05:03:10.221Z,48.35
2023-04-17T05:05:37.790Z,47.30
2023-04-17T05:08:04.273Z,52.22
2023-04-17T05:10:31.098Z,49.97
2023-04-17T05:12:57.785Z,48.63
2023-04-17T05:15:24.206Z,50.17
2023-04-17T05:17:50.670Z,55.50
2023-04-17T05:20:17.141Z,48.35
2023-04-17T05:22:43.555Z,50.38
2023-04-17T05:25:10.007Z,46.65
2023-04-17T05:27:36.458Z,56.28
2023-04-17T05:30:03.063Z,52.35
2023-04-17T05:32:31.184Z,51.47
2023-04-17T05:34:57.615Z,53.08
2023-04-17T05:37:24.068Z,51.08
2023-04-17T05:39:50.488Z,57.95
2023-04-17T05:42:17.355Z,46.92
2023-04-17T05:44:43.723Z,56.80
2023-04-17T05:47:10.122Z,58.03
2023-04-17T05:49:36.579Z,54.78
2023-04-17T05:52:02.993Z,60.25
2023-04-17T05:54:30.304Z,57.50
2023-04-17T05:56:56.814Z,65.13
2023-04-17T05:59:23.231Z,59.80
2023-04-17T06:01:49.696Z,63.67
2023-04-17T06:04:18.065Z,67.93
2023-04-17T06:06:44.962Z,68.82
2023-04-17T06:09:11.946Z,66.25
2023-04-17T06:11:38.698Z,66.35
2023-04-17T06:14:05.374Z,68.13
2023-04-17T06:16:31.833Z,70.75
2023-04-17T06:18:58.205Z,62.28
2023-04-17T06:21:24.713Z,62.13
2023-04-17T06:23:51.358Z,63.55
2023-04-17T06:26:17.831Z,59.28
2023-04-17T06:28:44.187Z,62.85
2023-04-17T06:31:11.085Z,64.47
2023-04-17T06:33:37.601Z,73.00
2023-04-17T06:36:04.217Z,64.65
2023-04-17T06:38:30.646Z,60.38
2023-04-17T06:40:57.103Z,62.47
2023-04-17T06:43:23.561Z,65.07
2023-04-17T06:45:50.047Z,55.25
2023-04-17T06:48:16.493Z,57.28
2023-04-17T06:50:42.880Z,64.10
2023-04-17T06:53:09.360Z,56.53
2023-04-17T06:55:35.827Z,54.70
2023-04-17T06:58:02.285Z,54.70
2023-04-17T07:00:28.688Z,54.58
2023-04-17T07:02:55.232Z,50.92
2023-04-17T07:05:21.739Z,45.17
2023-04-17T07:07:48.406Z,50.92
2023-04-17T07:10:16.097Z,54.08
2023-04-17T07:12:42.656Z,53.60
2023-04-17T07:15:11.075Z,50.70
2023-04-17T07:17:37.625Z,53.38
2023-04-17T07:20:07.398Z,45.50
2023-04-17T07:22:36.747Z,52.15
2023-04-17T07:25:03.899Z,45.97
2023-04-17T07:27:30.317Z,48.17
2023-04-17T07:29:56.810Z,46.95
2023-04-17T07:32:24.713Z,48.35
2023-04-17T07:34:51.212Z,43.03
2023-04-17T07:37:17.705Z,45.58
2023-04-17T07:39:45.028Z,42.15
2023-04-17T07:42:11.496Z,41.40
2023-04-17T07:44:41.073Z,42.10
2023-04-17T07:47:07.621Z,40.67
2023-04-17T07:49:34.291Z,37.28
2023-04-17T07:52:00.673Z,39.35
2023-04-17T07:54:27.196Z,36.75
2023-04-17T07:56:56.609Z,42.15
2023-04-17T07:59:23.011Z,36.80
2023-04-17T08:01:49.496Z,38.40
2023-04-17T08:04:17.088Z,39.75
2023-04-17T08:06:43.602Z,41.63
2023-04-17T08:09:10.364Z,38.25
2023-04-17T08:11:49.515Z,40.58
2023-04-17T08:14:23.615Z,34.95
2023-04-17T08:16:50.222Z,37.85
2023-04-17T08:19:16.742Z,33.65
2023-04-17T08:21:43.170Z,37.65
2023-04-17T08:24:09.621Z,36.40
2023-04-17T08:26:36.168Z,38.58
2023-04-17T08:29:04.560Z,35.33
2023-04-17T08:31:31.463Z,33.63
2023-04-17T08:34:12.844Z,33.17
2023-04-17T08:36:41.191Z,33.63
2023-04-17T08:39:09.944Z,36.53
2023-04-17T08:41:43.779Z,35.88
2023-04-17T08:44:10.761Z,37.20
2023-04-17T08:46:38.182Z,37.83
2023-04-17T08:49:04.829Z,35.75
2023-04-17T08:51:31.497Z,33.72
2023-04-17T08:53:57.870Z,35.08
2023-04-17T08:56:24.318Z,35.28
2023-04-17T08:58:51.005Z,36.05
2023-04-17T09:01:19.773Z,34.83
2023-04-17T09:03:48.980Z,35.90
2023-04-17T09:06:15.968Z,34.65
2023-04-17T09:09:00.629Z,39.35
2023-04-17T09:11:27.401Z,38.03
2023-04-17T09:13:54.276Z,36.55
2023-04-17T09:16:21.093Z,35.03
2023-04-17T09:18:48.249Z,34.67
2023-04-17T09:21:20.828Z,32.50
2023-04-17T09:23:51.172Z,32.65
2023-04-17T09:26:27.826Z,32.53
2023-04-17T09:29:13.759Z,34.13
2023-04-17T09:31:42.469Z,35.58
2023-04-17T09:34:11.856Z,34.13
2023-04-17T09:36:41.487Z,35.85
2023-04-17T09:39:24.202Z,34.05
2023-04-17T09:41:51.059Z,36.50
2023-04-17T09:44:29.878Z,36.60
2023-04-17T09:46:56.867Z,35.88
2023-04-17T09:49:39.631Z,34.03
2023-04-17T09:52:06.739Z,38.00
2023-04-17T09:54:37.733Z,35.72
2023-04-17T09:57:08.741Z,40.00
2023-04-17T09:59:38.974Z,33.05
2023-04-17T10:02:08.300Z,32.22
2023-04-17T10:04:35.439Z,32.78
2023-04-17T10:07:02.905Z,31.92
2023-04-17T10:09:29.325Z,34.03
2023-04-17T10:11:56.689Z,32.55
2023-04-17T10:14:28.279Z,35.53
2023-04-17T10:16:54.820Z,35.30
2023-04-17T10:19:31.355Z,35.90
2023-04-17T10:22:16.098Z,32.95
2023-04-17T10:24:43.075Z,32.08
2023-04-17T10:27:24.590Z,33.22
2023-04-17T10:29:57.708Z,33.47
2023-04-17T10:32:28.978Z,32.15
2023-04-17T10:35:01.254Z,32.05
2023-04-17T10:40:20.629Z,26.35
2023-04-17T10:43:17.726Z,29.27
2023-04-17T10:46:03.537Z,31.33
2023-04-17T10:48:36.645Z,31.23
2023-04-17T10:51:29.131Z,31.00
2023-04-17T10:53:57.220Z,29.80
2023-04-17T10:56:30.505Z,35.15
2023-04-17T10:58:59.776Z,26.45
2023-04-17T11:01:29.393Z,32.95
2023-04-17T11:03:56.930Z,33.20
2023-04-17T11:06:28.057Z,30.80
2023-04-17T11:08:57.179Z,32.92
2023-04-17T11:11:35.262Z,32.53
2023-04-17T11:14:14.382Z,32.45
2023-04-17T11:16:42.789Z,31.10
2023-04-17T11:19:09.984Z,30.90
2023-04-17T11:21:43.371Z,34.50
2023-04-17T11:24:10.220Z,32.80
2023-04-17T11:26:47.017Z,32.17
2023-04-17T11:29:17.476Z,33.47
2023-04-17T11:31:45.600Z,34.97
2023-04-17T11:34:12.209Z,33.85
2023-04-17T11:36:38.700Z,32.80
2023-04-17T11:39:05.447Z,33.55
2023-04-17T11:41:38.824Z,34.67
2023-04-17T11:44:09.063Z,35.17
2023-04-17T11:46:36.033Z,31.50
2023-04-17T11:49:06.277Z,37.00
2023-04-17T11:51:33.269Z,36.72
2023-04-17T11:54:00.034Z,35.28
2023-04-17T11:56:30.946Z,37.15
2023-04-17T11:58:58.484Z,33.15
2023-04-17T12:01:26.389Z,33.33
2023-04-17T12:03:54.253Z,36.78
2023-04-17T12:06:20.918Z,33.42
2023-04-17T12:08:51.172Z,36.65
2023-04-17T12:11:26.333Z,34.13
2023-04-17T12:13:56.303Z,34.42
2023-04-17T12:16:27.163Z,35.65
2023-04-17T12:18:54.007Z,32.63
2023-04-17T12:21:20.776Z,34.30
2023-04-17T12:23:47.683Z,34.03
2023-04-17T12:26:14.429Z,33.15
2023-04-17T12:28:40.843Z,34.05
2023-04-17T12:31:07.382Z,31.48
2023-04-17T12:33:34.017Z,33.40
2023-04-17T12:36:01.785Z,31.77
2023-04-17T12:38:28.397Z,33.42
2023-04-17T12:40:54.776Z,29.67
2023-04-17T12:43:21.163Z,31.63
2023-04-17T12:45:47.880Z,34.88
2023-04-17T12:48:14.994Z,31.77
2023-04-17T12:50:44.449Z,33.10
2023-04-17T12:53:12.612Z,33.60
2023-04-17T12:55:41.199Z,34.05
2023-04-17T12:58:10.028Z,30.60
2023-04-17T13:00:37.211Z,30.25
2023-04-17T13:03:03.779Z,30.90
2023-04-17T13:05:31.103Z,31.08
2023-04-17T13:07:59.002Z,31.00
2023-04-17T13:10:25.560Z,28.27
2023-04-17T13:12:52.022Z,33.03
2023-04-17T13:15:18.587Z,28.85
2023-04-17T13:17:45.339Z,29.95
2023-04-17T13:20:12.660Z,29.48
2023-04-17T13:22:39.308Z,28.00
2023-04-17T13:25:06.327Z,32.28
2023-04-17T13:27:32.760Z,28.45
2023-04-17T13:29:59.128Z,26.95
2023-04-17T13:32:25.603Z,29.67
2023-04-17T13:34:52.077Z,28.70
2023-04-17T13:37:18.546Z,29.60
2023-04-17T13:39:45.060Z,28.00
2023-04-17T13:42:14.893Z,27.35
2023-04-17T13:44:41.390Z,33.10
2023-04-17T13:47:08.067Z,26.58
2023-04-17T13:49:34.435Z,28.25
2023-04-17T13:52:00.875Z,27.63
2023-04-17T13:54:27.312Z,28.00
2023-04-17T13:56:54.035Z,29.13
2023-04-17T13:59:20.769Z,27.48
2023-04-17T14:01:47.212Z,28.33
2023-04-17T14:04:13.971Z,29.80
2023-04-17T14:06:40.557Z,27.85
2023-04-17T14:09:07.483Z,29.42
2023-04-17T14:11:33.989Z,28.98
2023-04-17T14:14:00.628Z,29.85
2023-04-17T14:16:27.600Z,29.35
2023-04-17T14:18:54.131Z,31.17
2023-04-17T14:21:21.902Z,32.03
2023-04-17T14:23:50.697Z,29.33
2023-04-17T14:26:17.177Z,30.75
2023-04-17T14:28:43.622Z,29.38
2023-04-17T14:31:10.626Z,28.77
2023-04-17T14:33:37.008Z,29.38
2023-04-17T14:36:05.658Z,26.52
2023-04-17T14:38:32.399Z,27.65
2023-04-17T14:40:58.908Z,31.90
2023-04-17T14:43:25.314Z,28.27
2023-04-17T14:45:51.754Z,25.65
2023-04-17T14:48:20.001Z,28.38
2023-04-17T14:50:47.007Z,29.00
2023-04-17T14:53:13.454Z,27.13
2023-04-17T14:55:39.919Z,27.38
2023-04-17T14:58:06.518Z,25.48
2023-04-17T15:00:33.104Z,26.77
2023-04-17T15:02:59.734Z,25.75
2023-04-17T15:05:27.010Z,25.95
2023-04-17T15:07:53.798Z,26.30
2023-04-17T15:10:20.337Z,27.42
2023-04-17T15:12:46.735Z,25.88
2023-04-17T15:15:13.253Z,25.08
2023-04-17T15:17:40.451Z,24.48
2023-04-17T15:20:07.392Z,23.45
2023-04-17T15:22:33.851Z,26.42
2023-04-17T15:25:00.284Z,23.95
2023-04-17T15:27:26.761Z,28.38
2023-04-17T15:29:53.208Z,26.17
2023-04-17T15:32:19.711Z,24.42
2023-04-17T15:34:47.357Z,27.30
2023-04-17T15:37:13.817Z,27.05
2023-04-17T15:39:40.509Z,26.92
2023-04-17T15:42:09.356Z,24.48
2023-04-17T15:44:37.447Z,24.30
2023-04-17T15:47:05.230Z,31.92
2023-04-17T15:49:31.736Z,27.23
2023-04-17T15:51:58.589Z,28.08
2023-04-17T15:54:25.037Z,24.63
2023-04-17T15:56:51.494Z,28.88
2023-04-17T15:59:17.929Z,26.98
2023-04-17T16:01:45.967Z,33.13
2023-04-17T16:04:12.536Z,27.80
2023-04-17T16:06:39.038Z,29.17
2023-04-17T16:09:05.485Z,30.45
2023-04-17T16:11:32.196Z,27.35
2023-04-17T16:13:58.645Z,28.77
2023-04-17T16:16:25.208Z,27.08
2023-04-17T16:18:51.679Z,30.55
2023-04-17T16:21:18.103Z,39.13
2023-04-17T16:23:45.780Z,30.08
2023-04-17T16:26:13.696Z,27.33
2023-04-17T16:28:40.102Z,30.55
2023-04-17T16:31:06.580Z,31.95
2023-04-17T16:33:33.076Z,29.60
2023-04-17T16:35:59.470Z,26.17
2023-04-17T16:38:26.024Z,29.27
2023-04-17T16:40:53.541Z,27.13
2023-04-17T16:43:20.085Z,32.08
2023-04-17T16:45:46.604Z,29.48
2023-04-17T16:48:13.081Z,31.20
2023-04-17T16:50:39.520Z,28.35
2023-04-17T16:53:05.944Z,27.63
2023-04-17T16:55:32.356Z,28.90
2023-04-17T16:58:00.572Z,34.90
2023-04-17T17:00:27.015Z,32.03
2023-04-17T17:02:53.542Z,29.92
2023-04-17T17:05:20.028Z,29.27
2023-04-17T17:07:46.449Z,27.55
2023-04-17T17:10:13.008Z,30.08
2023-04-17T17:12:39.444Z,31.00
2023-04-17T17:15:06.660Z,29.45
2023-04-17T17:17:33.142Z,30.67
2023-04-17T17:20:00.030Z,35.55
2023-04-17T17:22:26.460Z,31.48
2023-04-17T17:24:53.022Z,34.58
2023-04-17T17:27:19.415Z,31.58
2023-04-17T17:29:45.835Z,30.60
2023-04-17T17:32:12.323Z,36.58
2023-04-17T17:34:38.807Z,32.60
2023-04-17T17:37:05.242Z,33.60
2023-04-17T17:39:31.646Z,36.90
2023-04-17T17:41:58.147Z,34.13
2023-04-17T17:44:24.691Z,29.92
2023-04-17T17:46:51.167Z,33.65
2023-04-17T17:49:17.627Z,33.35
2023-04-17T17:51:44.506Z,34.92
2023-04-17T17:54:11.156Z,34.38
2023-04-17T17:56:38.795Z,33.13
2023-04-17T17:59:05.218Z,35.00
2023-04-17T18:01:31.661Z,35.33
2023-04-17T18:03:58.315Z,36.40
2023-04-17T18:06:25.979Z,34.42
2023-04-17T18:08:52.926Z,34.70
2023-04-17T18:11:20.695Z,34.38
2023-04-17T18:13:47.148Z,33.33
2023-04-17T18:16:13.571Z,33.13
2023-04-17T18:18:40.017Z,35.20
2023-04-17T18:21:07.216Z,37.42
2023-04-17T18:23:33.669Z,36.58
2023-04-17T18:26:01.057Z,32.28
2023-04-17T18:28:27.567Z,33.53
2023-04-17T18:30:54.204Z,28.42
2023-04-17T18:33:20.740Z,38.67
2023-04-17T18:35:47.134Z,41.40
2023-04-17T18:38:14.398Z,40.38
2023-04-17T18:40:40.746Z,41.60
2023-04-17T18:43:09.969Z,36.30
2023-04-17T18:45:36.484Z,37.83
2023-04-17T18:48:03.014Z,36.88
2023-04-17T18:50:29.474Z,38.65
2023-04-17T18:52:56.131Z,38.90
2023-04-17T18:55:22.664Z,38.42
2023-04-17T18:57:49.075Z,37.85
2023-04-17T19:00:15.650Z,41.25
2023-04-17T19:02:42.637Z,41.00
2023-04-17T19:05:09.271Z,42.17
2023-04-17T19:07:35.727Z,39.15
2023-04-17T19:10:02.139Z,38.58
2023-04-17T19:12:28.680Z,35.65
2023-04-17T19:14:57.113Z,43.15
2023-04-17T19:17:25.270Z,41.05
2023-04-17T19:19:51.751Z,41.05
2023-04-17T19:22:18.565Z,39.10
2023-04-17T19:24:49.822Z,39.22
2023-04-17T19:27:16.864Z,39.72
2023-04-17T19:29:43.342Z,38.05
2023-04-17T19:32:09.918Z,38.08
2023-04-17T19:34:36.614Z,37.00
2023-04-17T19:37:03.102Z,36.35
2023-04-17T19:39:29.603Z,34.25
2023-04-17T19:41:55.995Z,38.33
2023-04-17T19:44:22.621Z,31.80
2023-04-17T19:46:49.004Z,34.35
2023-04-17T19:49:15.640Z,31.15
2023-04-17T19:51:42.134Z,34.40
2023-04-17T19:54:09.883Z,34.25
2023-04-17T19:56:36.296Z,32.30
2023-04-17T19:59:02.993Z,30.33
2023-04-17T20:01:30.476Z,28.27
2023-04-17T20:03:57.368Z,34.38
2023-04-17T20:06:23.875Z,31.13
2023-04-17T20:08:50.374Z,33.60
2023-04-17T20:11:16.887Z,33.45
2023-04-17T20:13:43.340Z,33.08
2023-04-17T20:16:09.730Z,33.60
2023-04-17T20:18:37.335Z,28.27
2023-04-17T20:21:05.827Z,29.23
2023-04-17T20:23:32.715Z,31.23
2023-04-17T20:25:59.175Z,32.92
2023-04-17T20:28:28.674Z,28.92
2023-04-17T20:30:55.476Z,28.50
2023-04-17T20:33:21.915Z,28.77
2023-04-17T20:35:48.656Z,30.58
2023-04-17T20:38:15.497Z,30.08
2023-04-17T20:40:41.974Z,28.17
2023-04-17T20:43:08.402Z,29.85
2023-04-17T20:45:34.793Z,28.42
2023-04-17T20:48:01.893Z,30.88
2023-04-17T20:50:28.436Z,31.70
2023-04-17T20:52:54.867Z,35.38
2023-04-17T20:55:21.429Z,33.30
2023-04-17T20:57:47.924Z,35.80
2023-04-17T21:00:14.620Z,29.33
2023-04-17T21:02:41.281Z,36.35
2023-04-17T21:05:09.010Z,31.52
2023-04-17T21:07:36.309Z,35.75
2023-04-17T21:10:03.110Z,35.00
2023-04-17T21:12:29.609Z,35.58
2023-04-17T21:14:56.010Z,32.15
2023-04-17T21:17:22.754Z,31.92
2023-04-17T21:19:49.385Z,33.42
2023-04-17T21:22:15.986Z,34.17
2023-04-17T21:24:42.491Z,35.97
2023-04-17T21:27:08.951Z,36.00
2023-04-17T21:29:35.431Z,36.70
2023-04-17T21:32:01.938Z,34.88
2023-04-17T21:34:28.437Z,37.85
2023-04-17T21:36:54.846Z,43.28
2023-04-17T21:39:21.850Z,35.97
2023-04-17T21:41:48.377Z,34.20
2023-04-17T21:44:15.411Z,40.45
2023-04-17T21:46:45.111Z,41.67
2023-04-17T21:49:11.757Z,37.72
2023-04-17T21:51:38.141Z,36.65
2023-04-17T21:54:04.644Z,38.00
2023-04-17T21:56:31.595Z,38.55
2023-04-17T21:58:58.049Z,31.50
2023-04-17T22:01:24.561Z,36.60
2023-04-17T22:03:51.170Z,37.85
2023-04-17T22:06:17.587Z,36.55
2023-04-17T22:08:44.293Z,35.83
2023-04-17T22:11:10.747Z,32.53
2023-04-17T22:13:37.293Z,37.13
2023-04-17T22:16:03.961Z,36.00
2023-04-17T22:18:30.428Z,35.03
2023-04-17T22:21:15.491Z,36.28
2023-04-17T22:24:19.569Z,37.70
2023-04-17T22:27:04.572Z,34.08
2023-04-17T22:30:27.433Z,34.50
2023-04-17T22:33:31.228Z,37.65
2023-04-17T22:36:53.829Z,30.35
2023-04-17T22:39:38.715Z,34.42
2023-04-17T22:42:42.653Z,33.83
2023-04-17T22:45:46.270Z,30.08
2023-04-17T22:48:50.522Z,31.65
2023-04-17T22:51:17.678Z,27.40
2023-04-17T22:54:23.280Z,34.25
2023-04-17T22:57:08.680Z,29.27
2023-04-17T23:00:12.564Z,26.60
2023-04-17T23:02:58.012Z,27.67
2023-04-17T23:06:01.892Z,27.20
2023-04-17T23:08:29.965Z,28.55
2023-04-17T23:11:00.335Z,22.83
2023-04-17T23:13:31.409Z,26.20
2023-04-17T23:15:57.996Z,27.95
2023-04-17T23:18:24.739Z,27.90
2023-04-17T23:20:51.190Z,28.33
2023-04-17T23:23:19.600Z,21.75
2023-04-17T23:25:46.044Z,27.65
2023-04-17T23:28:12.472Z,25.13
2023-04-17T23:30:38.886Z,24.30
2023-04-17T23:33:05.407Z,26.15
2023-04-17T23:35:31.864Z,21.48
2023-04-17T23:37:58.304Z,27.35
2023-04-17T23:40:25.682Z,26.73
2023-04-17T23:42:52.954Z,24.08
2023-04-17T23:45:19.406Z,23.73
2023-04-17T23:47:46.323Z,22.65
2023-04-17T23:50:12.825Z,19.55
2023-04-17T23:52:39.253Z,19.02
2023-04-17T23:55:06.296Z,19.73
2023-04-17T23:57:35.737Z,20.77
